Huntington, Texas
Current Conditions -  °F | °C
As of 11:28 AM on Friday 19 Dec 2014 (Local Time) from KLFK Reporting Station
Light Rain Light Rain  
Wind Chill: 53°   Ceiling: 3000
Heat Index: 53°   Visibility: 10mi
Dew Point: 48°   Wind: 10mph
Humidity: 83%   Direction: 40°NE
Pressure: 30.14"   Gusts: 20mph
Location:  31.28°N, 94.58°W
Report Text: KLFK 191728Z AUTO 04009G17KT 010V070 10SM -RA SCT009 SCT013 OVC030 12/09 A3014 RMK AO2 P0001 T01170089
Loading
Personal Weather Stations






























Interactive Weather Map New forecast layout! Learn more

10-Day Weather Forecast

Advertisements
Track Severe Weather on mobile